Nashville, Tennessee
Current Conditions -  °F | °C
As of 3:53 PM on Thursday 27 Nov 2014 (Local Time) from KBNA Reporting Station
Few Clouds Few Clouds  
Wind Chill: 27°   Ceiling: Unl
Heat Index: 35°   Visibility: 10mi
Dew Point: 23°   Wind: 10mph
Humidity: 61%   Direction: 330°NNW
Pressure: 30.44"   Gusts: NA
Location:  36.11°N, 86.68°W
Report Text: KBNA 272153Z 33009KT 10SM FEW032 02/M05 A3044 RMK AO2 SLP312 T00171050
Loading
Personal Weather Stations






























Interactive Weather Map New forecast layout! Learn more

10-Day Weather Forecast

Advertisements
Track Severe Weather on mobile